createdAt,value
2018-03-29T00:00:24.754Z,8.37
2018-03-29T00:02:52.185Z,8.25
2018-03-29T00:05:19.572Z,8.20
2018-03-29T00:07:46.968Z,8.12
2018-03-29T00:10:14.414Z,8.39
2018-03-29T00:12:41.775Z,8.25
2018-03-29T00:15:09.167Z,8.08
2018-03-29T00:17:36.918Z,8.34
2018-03-29T00:20:04.301Z,8.29
2018-03-29T00:22:31.691Z,8.27
2018-03-29T00:24:59.082Z,8.12
2018-03-29T00:27:26.479Z,8.21
2018-03-29T00:29:53.859Z,8.13
2018-03-29T00:32:21.251Z,8.21
2018-03-29T00:34:48.631Z,8.01
2018-03-29T00:37:16.007Z,8.04
2018-03-29T00:39:43.490Z,8.04
2018-03-29T00:42:10.902Z,8.05
2018-03-29T00:44:38.298Z,8.05
2018-03-29T00:47:07.018Z,8.04
2018-03-29T00:49:34.412Z,8.04
2018-03-29T00:52:01.840Z,7.92
2018-03-29T00:54:29.256Z,7.91
2018-03-29T00:56:56.634Z,7.89
2018-03-29T00:59:24.073Z,7.82
2018-03-29T01:01:51.489Z,7.98
2018-03-29T01:04:18.917Z,8.13
2018-03-29T01:06:46.307Z,7.93
2018-03-29T01:09:14.088Z,8.05
2018-03-29T01:11:41.484Z,7.83
2018-03-29T01:14:08.873Z,7.78
2018-03-29T01:16:37.245Z,7.73
2018-03-29T01:19:04.633Z,7.80
2018-03-29T01:21:32.036Z,7.95
2018-03-29T01:23:59.417Z,8.05
2018-03-29T01:26:29.361Z,7.99
2018-03-29T01:28:56.752Z,7.92
2018-03-29T01:31:24.150Z,8.19
2018-03-29T01:33:51.525Z,8.03
2018-03-29T01:36:18.936Z,8.10
2018-03-29T01:38:46.318Z,8.11
2018-03-29T01:41:13.713Z,7.97
2018-03-29T01:43:41.098Z,7.81
2018-03-29T01:46:08.491Z,8.01
2018-03-29T01:48:35.888Z,8.17
2018-03-29T01:51:03.273Z,8.23
2018-03-29T01:53:30.878Z,8.26
2018-03-29T01:55:58.266Z,8.58
2018-03-29T01:58:25.669Z,8.55
2018-03-29T02:00:53.069Z,8.85
2018-03-29T02:03:20.460Z,8.69
2018-03-29T02:05:47.844Z,8.69
2018-03-29T02:08:15.234Z,8.54
2018-03-29T02:10:42.628Z,8.59
2018-03-29T02:13:10.017Z,8.59
2018-03-29T02:15:37.668Z,8.32
2018-03-29T02:18:05.062Z,8.30
2018-03-29T02:20:32.466Z,8.30
2018-03-29T02:22:59.839Z,8.47
2018-03-29T02:25:27.249Z,8.31
2018-03-29T02:27:54.634Z,8.09
2018-03-29T02:30:23.071Z,8.38
2018-03-29T02:32:50.572Z,8.46
2018-03-29T02:37:51.713Z,8.27
2018-03-29T02:40:19.220Z,8.21
2018-03-29T02:42:46.613Z,8.24
2018-03-29T02:45:14.005Z,8.08
2018-03-29T02:47:41.384Z,8.20
2018-03-29T02:50:08.933Z,8.39
2018-03-29T02:52:36.368Z,8.12
2018-03-29T02:55:03.762Z,7.99
2018-03-29T02:57:31.145Z,7.83
2018-03-29T02:59:58.534Z,7.86
2018-03-29T03:02:25.923Z,7.64
2018-03-29T03:04:53.331Z,7.75
2018-03-29T03:07:20.717Z,7.91
2018-03-29T03:09:48.100Z,7.68
2018-03-29T03:12:15.480Z,7.65
2018-03-29T03:14:42.860Z,7.75
2018-03-29T03:17:10.264Z,7.98
2018-03-29T03:19:37.817Z,8.09
2018-03-29T03:22:05.296Z,8.40
2018-03-29T03:24:32.709Z,8.38
2018-03-29T03:27:00.118Z,8.39
2018-03-29T03:29:27.490Z,8.40
2018-03-29T03:31:54.872Z,8.53
2018-03-29T03:34:22.244Z,8.61
2018-03-29T03:36:49.690Z,8.41
2018-03-29T03:39:17.128Z,8.51
2018-03-29T03:41:44.533Z,8.52
2018-03-29T03:44:11.896Z,8.61
2018-03-29T03:46:39.300Z,8.35
2018-03-29T03:49:06.699Z,8.40
2018-03-29T03:51:34.087Z,8.58
2018-03-29T03:54:01.471Z,8.76
2018-03-29T03:56:28.866Z,8.45
2018-03-29T03:58:56.256Z,8.64
2018-03-29T04:01:23.645Z,8.44
2018-03-29T04:03:51.116Z,8.47
2018-03-29T04:06:18.513Z,8.49
2018-03-29T04:08:45.921Z,8.34
2018-03-29T04:11:13.319Z,8.25
2018-03-29T04:13:40.705Z,8.47
2018-03-29T04:16:08.137Z,8.37
2018-03-29T04:18:35.505Z,8.39
2018-03-29T04:21:02.928Z,8.50
2018-03-29T04:23:30.320Z,8.73
2018-03-29T04:25:57.718Z,8.68
2018-03-29T04:28:25.092Z,8.28
2018-03-29T04:30:52.585Z,8.07
2018-03-29T04:33:19.976Z,8.17
2018-03-29T04:35:47.381Z,8.09
2018-03-29T04:38:14.764Z,7.96
2018-03-29T04:40:42.135Z,7.91
2018-03-29T04:43:09.536Z,8.08
2018-03-29T04:45:36.920Z,8.22
2018-03-29T04:48:04.314Z,8.19
2018-03-29T04:50:31.710Z,8.18
2018-03-29T04:52:59.145Z,8.26
2018-03-29T04:55:26.596Z,7.90
2018-03-29T04:57:53.933Z,8.10
2018-03-29T05:00:21.323Z,8.03
2018-03-29T05:02:48.713Z,8.20
2018-03-29T05:05:16.129Z,8.10
2018-03-29T05:07:43.509Z,7.97
2018-03-29T05:10:10.905Z,7.93
2018-03-29T05:12:38.500Z,8.03
2018-03-29T05:15:05.902Z,8.24
2018-03-29T05:17:33.296Z,8.29
2018-03-29T05:20:00.675Z,8.26
2018-03-29T05:22:28.094Z,8.25
2018-03-29T05:24:55.468Z,8.41
2018-03-29T05:27:25.804Z,8.34
2018-03-29T05:29:53.182Z,8.13
2018-03-29T05:32:20.569Z,7.95
2018-03-29T05:34:47.956Z,7.97
2018-03-29T05:37:15.350Z,8.08
2018-03-29T05:39:42.746Z,7.79
2018-03-29T05:42:10.165Z,7.99
2018-03-29T05:44:38.415Z,7.90
2018-03-29T05:47:05.816Z,7.98
2018-03-29T05:49:35.142Z,7.81
2018-03-29T05:52:02.685Z,7.99
2018-03-29T05:54:30.099Z,7.98
2018-03-29T05:56:57.477Z,7.97
2018-03-29T05:59:24.870Z,8.06
2018-03-29T06:01:52.298Z,7.70
2018-03-29T06:04:19.694Z,7.81
2018-03-29T06:06:47.073Z,7.78
2018-03-29T06:09:14.467Z,7.66
2018-03-29T06:11:41.921Z,7.80
2018-03-29T06:14:09.313Z,7.86
2018-03-29T06:16:42.198Z,7.86
2018-03-29T06:19:09.597Z,7.88
2018-03-29T06:21:37.005Z,8.10
2018-03-29T06:24:04.412Z,8.06
2018-03-29T06:26:31.811Z,8.15
2018-03-29T06:29:00.739Z,8.06
2018-03-29T06:31:28.167Z,8.18
2018-03-29T06:33:55.585Z,8.33
2018-03-29T06:36:23.003Z,8.06
2018-03-29T06:38:50.396Z,8.15
2018-03-29T06:41:17.789Z,8.51
2018-03-29T06:43:45.182Z,8.65
2018-03-29T06:46:12.747Z,8.55
2018-03-29T06:48:40.181Z,8.71
2018-03-29T06:51:07.558Z,8.68
2018-03-29T06:53:34.955Z,8.71
2018-03-29T06:56:02.351Z,8.57
2018-03-29T06:58:29.733Z,8.69
2018-03-29T07:00:57.192Z,8.55
2018-03-29T07:03:24.661Z,8.56
2018-03-29T07:05:52.221Z,8.44
2018-03-29T07:08:19.633Z,8.40
2018-03-29T07:10:47.038Z,8.31
2018-03-29T07:13:14.452Z,8.44
2018-03-29T07:15:41.902Z,8.44
2018-03-29T07:18:10.106Z,8.51
2018-03-29T07:20:37.510Z,8.48
2018-03-29T07:23:04.911Z,8.55
2018-03-29T07:25:32.370Z,8.74
2018-03-29T07:27:59.790Z,8.88
2018-03-29T07:30:27.229Z,8.63
2018-03-29T07:32:55.530Z,8.79
2018-03-29T07:35:22.999Z,8.75
2018-03-29T07:37:50.386Z,8.53
2018-03-29T07:40:17.810Z,8.46
2018-03-29T07:42:45.205Z,8.59
2018-03-29T07:45:13.012Z,8.57
2018-03-29T07:47:40.405Z,8.68
2018-03-29T07:50:07.781Z,8.87
2018-03-29T07:52:35.229Z,8.89
2018-03-29T07:55:02.656Z,8.80
2018-03-29T07:57:30.041Z,9.06
2018-03-29T07:59:57.472Z,9.06
2018-03-29T08:02:24.857Z,8.89
2018-03-29T08:04:52.255Z,8.58
2018-03-29T08:07:19.756Z,8.63
2018-03-29T08:09:47.173Z,9.12
2018-03-29T08:12:14.590Z,9.35
2018-03-29T08:14:41.980Z,9.56
2018-03-29T08:17:09.393Z,9.48
2018-03-29T08:19:36.824Z,9.45
2018-03-29T08:22:04.216Z,9.60
2018-03-29T08:24:31.624Z,9.72
2018-03-29T08:26:59.017Z,9.60
2018-03-29T08:29:26.427Z,9.14
2018-03-29T08:31:53.804Z,9.19
2018-03-29T08:34:21.978Z,9.09
2018-03-29T08:36:49.378Z,8.95
2018-03-29T08:39:16.795Z,8.95
2018-03-29T08:41:44.276Z,8.86
2018-03-29T08:44:12.708Z,8.95
2018-03-29T08:46:40.179Z,8.75
2018-03-29T08:49:07.599Z,8.78
2018-03-29T08:51:35.297Z,8.56
2018-03-29T08:54:02.687Z,8.69
2018-03-29T08:56:30.106Z,8.62
2018-03-29T08:58:57.542Z,8.83
2018-03-29T09:01:25.073Z,8.94
2018-03-29T09:03:52.466Z,9.02
2018-03-29T09:06:20.635Z,9.06
2018-03-29T09:08:48.058Z,9.54
2018-03-29T09:11:15.440Z,10.10
2018-03-29T09:13:42.824Z,9.82
2018-03-29T09:16:10.234Z,9.89
2018-03-29T09:18:38.115Z,9.84
2018-03-29T09:21:05.573Z,9.64
2018-03-29T09:23:32.906Z,9.30
2018-03-29T09:26:00.309Z,9.63
2018-03-29T09:28:27.724Z,9.92
2018-03-29T09:30:55.140Z,9.68
2018-03-29T09:33:22.530Z,9.67
2018-03-29T09:35:54.948Z,9.78
2018-03-29T09:38:22.354Z,10.10
2018-03-29T09:40:49.759Z,9.93
2018-03-29T09:43:17.165Z,10.24
2018-03-29T09:45:44.594Z,10.46
2018-03-29T09:48:12.059Z,10.66
2018-03-29T09:50:39.587Z,10.08
2018-03-29T09:53:06.997Z,9.91
2018-03-29T09:55:34.461Z,10.08
2018-03-29T09:58:01.799Z,10.23
2018-03-29T10:00:35.142Z,10.33
2018-03-29T10:03:08.101Z,10.46
2018-03-29T10:05:38.440Z,10.81
2018-03-29T10:08:05.825Z,10.77
2018-03-29T10:10:33.217Z,11.19
2018-03-29T10:13:00.701Z,11.10
2018-03-29T10:15:28.113Z,10.93
2018-03-29T10:17:55.511Z,11.22
2018-03-29T10:20:22.896Z,11.40
2018-03-29T10:22:50.313Z,11.54
2018-03-29T10:25:17.703Z,11.71
2018-03-29T10:27:45.114Z,11.05
2018-03-29T10:30:13.573Z,11.63
2018-03-29T10:32:40.995Z,11.27
2018-03-29T10:35:08.377Z,11.26
2018-03-29T10:37:35.777Z,11.02
2018-03-29T10:40:03.413Z,11.36
2018-03-29T10:42:31.026Z,11.60
2018-03-29T10:44:58.453Z,11.86
2018-03-29T10:47:25.857Z,11.54
2018-03-29T10:49:53.314Z,11.60
2018-03-29T10:52:20.781Z,11.65
2018-03-29T10:54:48.161Z,11.63
2018-03-29T10:57:15.557Z,11.83
2018-03-29T10:59:42.966Z,11.61
2018-03-29T11:02:10.573Z,11.68
2018-03-29T11:04:37.970Z,11.46
2018-03-29T11:07:05.366Z,11.13
2018-03-29T11:09:32.761Z,11.17
2018-03-29T11:12:00.172Z,11.01
2018-03-29T11:14:27.584Z,11.17
2018-03-29T11:16:54.981Z,11.25
2018-03-29T11:19:22.370Z,11.08
2018-03-29T11:21:49.794Z,11.55
2018-03-29T11:24:17.178Z,11.32
2018-03-29T11:26:44.634Z,11.54
2018-03-29T11:29:12.033Z,12.05
2018-03-29T11:31:40.085Z,12.42
2018-03-29T11:34:07.494Z,12.67
2018-03-29T11:36:34.889Z,12.13
2018-03-29T11:39:02.297Z,12.23
2018-03-29T11:41:29.681Z,12.19
2018-03-29T11:43:57.066Z,11.80
2018-03-29T11:46:24.526Z,12.28
2018-03-29T11:48:53.204Z,12.64
2018-03-29T11:51:20.619Z,12.92
2018-03-29T11:53:48.111Z,13.03
2018-03-29T11:56:15.496Z,13.52
2018-03-29T11:58:42.912Z,14.39
2018-03-29T12:01:10.390Z,13.87
2018-03-29T12:03:37.802Z,14.31
2018-03-29T12:06:05.334Z,15.20
2018-03-29T12:08:32.857Z,15.75
2018-03-29T12:11:00.280Z,15.50
2018-03-29T12:13:27.777Z,14.87
2018-03-29T12:15:55.844Z,14.53
2018-03-29T12:18:23.383Z,15.04
2018-03-29T12:20:50.755Z,16.10
2018-03-29T12:23:18.173Z,16.06
2018-03-29T12:25:45.553Z,15.22
2018-03-29T12:28:12.951Z,14.63
2018-03-29T12:30:40.476Z,14.41
2018-03-29T12:33:07.875Z,15.57
2018-03-29T12:35:35.296Z,15.06
2018-03-29T12:38:02.764Z,15.28
2018-03-29T12:40:30.163Z,15.43
2018-03-29T12:42:57.638Z,14.51
2018-03-29T12:45:25.096Z,14.58
2018-03-29T12:47:52.475Z,13.96
2018-03-29T12:50:20.880Z,13.77
2018-03-29T12:52:48.492Z,13.62
2018-03-29T12:55:27.558Z,13.62
2018-03-29T12:58:10.505Z,13.66
2018-03-29T13:00:37.922Z,15.99
2018-03-29T13:03:05.348Z,16.58
2018-03-29T13:05:32.763Z,15.20
2018-03-29T13:08:00.588Z,15.28
2018-03-29T13:10:28.006Z,16.75
2018-03-29T13:12:55.498Z,15.61
2018-03-29T13:15:22.906Z,14.11
2018-03-29T13:17:50.319Z,13.67
2018-03-29T13:20:17.760Z,14.06
2018-03-29T13:22:45.582Z,14.67
2018-03-29T13:25:12.999Z,14.20
2018-03-29T13:27:41.171Z,13.99
2018-03-29T13:30:08.532Z,13.74
2018-03-29T13:32:35.971Z,13.37
2018-03-29T13:35:03.339Z,13.30
2018-03-29T13:37:30.732Z,12.90
2018-03-29T13:39:58.154Z,12.90
2018-03-29T13:42:25.536Z,12.54
2018-03-29T13:44:52.972Z,12.91
2018-03-29T13:47:20.433Z,13.25
2018-03-29T13:49:47.820Z,13.07
2018-03-29T13:52:15.226Z,12.84
2018-03-29T13:54:42.657Z,12.23
2018-03-29T13:57:10.805Z,12.01
2018-03-29T13:59:38.189Z,12.06
2018-03-29T14:02:05.625Z,12.07
2018-03-29T14:04:33.027Z,12.42
2018-03-29T14:07:00.433Z,14.37
2018-03-29T14:09:28.199Z,16.21
2018-03-29T14:11:55.652Z,16.23
2018-03-29T14:14:23.040Z,16.60
2018-03-29T14:16:50.442Z,16.39
2018-03-29T14:19:17.829Z,16.28
2018-03-29T14:21:45.254Z,15.33
2018-03-29T14:24:15.228Z,14.67
2018-03-29T14:26:42.939Z,14.25
2018-03-29T14:29:10.935Z,14.43
2018-03-29T14:31:38.359Z,14.08
2018-03-29T14:34:05.763Z,13.60
2018-03-29T14:36:34.351Z,13.76
2018-03-29T14:39:01.767Z,13.75
2018-03-29T14:41:29.186Z,13.64
2018-03-29T14:43:56.615Z,14.45
2018-03-29T14:46:23.989Z,14.49
2018-03-29T14:48:51.588Z,14.55
2018-03-29T14:51:18.953Z,14.25
2018-03-29T14:53:46.353Z,14.02
2018-03-29T14:56:13.729Z,13.46
2018-03-29T14:58:41.128Z,13.47
2018-03-29T15:01:08.533Z,13.28
2018-03-29T15:03:35.977Z,13.63
2018-03-29T15:06:03.359Z,15.05
2018-03-29T15:08:30.800Z,15.03
2018-03-29T15:10:58.186Z,14.77
2018-03-29T15:13:25.580Z,15.16
2018-03-29T15:15:52.993Z,14.93
2018-03-29T15:18:20.392Z,14.73
2018-03-29T15:20:48.901Z,14.77
2018-03-29T15:23:16.304Z,16.19
2018-03-29T15:25:43.686Z,17.90
2018-03-29T15:28:11.161Z,17.85
2018-03-29T15:30:38.549Z,16.79
2018-03-29T15:33:05.955Z,17.71
2018-03-29T15:35:33.360Z,16.60
2018-03-29T15:38:00.758Z,15.95
2018-03-29T15:40:28.146Z,16.61
2018-03-29T15:42:55.552Z,17.73
2018-03-29T15:45:23.239Z,16.82
2018-03-29T15:47:50.645Z,17.31
2018-03-29T15:50:18.046Z,16.60
2018-03-29T15:52:46.123Z,16.38
2018-03-29T15:55:13.554Z,15.32
2018-03-29T15:57:41.393Z,14.59
2018-03-29T16:00:08.801Z,15.04
2018-03-29T16:02:36.208Z,15.85
2018-03-29T16:05:03.616Z,16.38
2018-03-29T16:07:31.063Z,16.85
2018-03-29T16:09:58.523Z,16.33
2018-03-29T16:12:25.989Z,16.19
2018-03-29T16:14:53.318Z,17.84
2018-03-29T16:17:20.776Z,16.48
2018-03-29T16:19:48.176Z,15.45
2018-03-29T16:22:15.964Z,17.31
2018-03-29T16:24:43.360Z,17.56
2018-03-29T16:27:11.511Z,17.99
2018-03-29T16:29:38.913Z,16.79
2018-03-29T16:32:06.340Z,17.73
2018-03-29T16:34:33.706Z,16.85
2018-03-29T16:37:01.099Z,15.64
2018-03-29T16:39:28.622Z,16.28
2018-03-29T16:41:56.090Z,16.52
2018-03-29T16:44:23.485Z,16.21
2018-03-29T16:46:51.944Z,15.98
2018-03-29T16:49:19.375Z,15.19
2018-03-29T16:51:46.823Z,15.31
2018-03-29T16:54:14.225Z,15.41
2018-03-29T16:56:41.638Z,15.36
2018-03-29T16:59:09.050Z,14.80
2018-03-29T17:01:36.700Z,14.46
2018-03-29T17:04:04.094Z,14.26
2018-03-29T17:06:32.448Z,14.02
2018-03-29T17:08:59.858Z,14.07
2018-03-29T17:11:27.398Z,13.79
2018-03-29T17:13:54.913Z,13.99
2018-03-29T17:16:22.382Z,13.70
2018-03-29T17:18:49.774Z,13.94
2018-03-29T17:21:17.187Z,13.83
2018-03-29T17:23:44.705Z,13.79
2018-03-29T17:26:12.026Z,13.23
2018-03-29T17:28:39.427Z,13.52
2018-03-29T17:31:06.925Z,12.88
2018-03-29T17:33:34.354Z,12.80
2018-03-29T17:36:01.836Z,12.83
2018-03-29T17:38:29.231Z,12.70
2018-03-29T17:40:56.665Z,12.52
2018-03-29T17:43:24.066Z,12.70
2018-03-29T17:45:51.479Z,12.96
2018-03-29T17:48:19.109Z,12.78
2018-03-29T17:50:46.543Z,12.83
2018-03-29T17:53:13.925Z,12.63
2018-03-29T17:55:41.905Z,12.83
2018-03-29T17:58:09.337Z,12.74
2018-03-29T18:00:36.794Z,12.91
2018-03-29T18:03:04.228Z,12.62
2018-03-29T18:05:31.641Z,12.70
2018-03-29T18:07:59.028Z,12.84
2018-03-29T18:10:26.437Z,12.89
2018-03-29T18:12:53.831Z,12.82
2018-03-29T18:15:21.219Z,13.06
2018-03-29T18:17:48.611Z,13.02
2018-03-29T18:20:16.016Z,12.87
2018-03-29T18:22:46.102Z,12.83
2018-03-29T18:25:13.485Z,12.44
2018-03-29T18:27:41.081Z,12.57
2018-03-29T18:30:08.510Z,12.59
2018-03-29T18:32:35.908Z,12.79
2018-03-29T18:35:03.464Z,12.71
2018-03-29T18:37:30.857Z,12.63
2018-03-29T18:39:59.030Z,12.66
2018-03-29T18:42:26.401Z,12.67
2018-03-29T18:44:53.811Z,12.74
2018-03-29T18:47:21.329Z,12.71
2018-03-29T18:49:48.773Z,12.61
2018-03-29T18:52:16.182Z,12.56
2018-03-29T18:54:43.615Z,12.38
2018-03-29T18:57:11.002Z,12.29
2018-03-29T18:59:38.393Z,12.31
2018-03-29T19:02:05.792Z,12.42
2018-03-29T19:04:33.191Z,12.69
2018-03-29T19:07:00.703Z,12.83
2018-03-29T19:09:28.104Z,12.66
2018-03-29T19:11:55.498Z,12.62
2018-03-29T19:14:22.930Z,12.28
2018-03-29T19:16:51.417Z,12.35
2018-03-29T19:19:18.822Z,12.48
2018-03-29T19:21:46.270Z,12.56
2018-03-29T19:24:13.663Z,12.46
2018-03-29T19:26:41.107Z,12.54
2018-03-29T19:29:08.569Z,12.32
2018-03-29T19:31:36.134Z,12.19
2018-03-29T19:34:03.632Z,12.22
2018-03-29T19:36:31.069Z,12.24
2018-03-29T19:38:58.720Z,12.21
2018-03-29T19:41:26.117Z,12.20
2018-03-29T19:43:53.513Z,11.96
2018-03-29T19:46:20.918Z,12.02
2018-03-29T19:48:48.435Z,12.14
2018-03-29T19:51:15.853Z,12.02
2018-03-29T19:53:43.246Z,11.56
2018-03-29T19:56:10.644Z,11.46
2018-03-29T19:58:38.083Z,11.54
2018-03-29T20:01:05.434Z,11.51
2018-03-29T20:03:32.829Z,11.57
2018-03-29T20:06:00.383Z,11.52
2018-03-29T20:08:27.849Z,11.38
2018-03-29T20:10:55.418Z,11.37
2018-03-29T20:13:22.998Z,11.30
2018-03-29T20:15:51.378Z,11.38
2018-03-29T20:18:18.859Z,11.24
2018-03-29T20:20:46.610Z,11.09
2018-03-29T20:23:14.318Z,11.10
2018-03-29T20:25:42.632Z,11.35
2018-03-29T20:28:10.013Z,11.36
2018-03-29T20:30:37.651Z,11.13
2018-03-29T20:33:05.030Z,11.24
2018-03-29T20:35:32.576Z,11.34
2018-03-29T20:38:00.103Z,11.28
2018-03-29T20:40:27.600Z,11.23
2018-03-29T20:42:55.033Z,11.31
2018-03-29T20:45:22.635Z,11.20
2018-03-29T20:47:50.068Z,11.22
2018-03-29T20:50:17.674Z,11.31
2018-03-29T20:52:45.430Z,11.27
2018-03-29T20:55:12.963Z,11.20
2018-03-29T20:57:40.389Z,11.22
2018-03-29T21:00:07.903Z,11.30
2018-03-29T21:02:35.514Z,11.40
2018-03-29T21:05:02.988Z,11.31
2018-03-29T21:07:30.512Z,11.32
2018-03-29T21:09:57.949Z,11.46
2018-03-29T21:12:25.498Z,11.28
2018-03-29T21:14:52.909Z,11.28
2018-03-29T21:17:20.507Z,11.27
2018-03-29T21:19:47.994Z,11.19
2018-03-29T21:22:15.405Z,11.28
2018-03-29T21:24:44.901Z,11.55
2018-03-29T21:27:13.149Z,11.45
2018-03-29T21:29:40.877Z,11.31
2018-03-29T21:32:08.361Z,11.21
2018-03-29T21:34:35.794Z,11.29
2018-03-29T21:37:03.245Z,11.61
2018-03-29T21:39:30.692Z,11.61
2018-03-29T21:41:58.432Z,11.15
2018-03-29T21:44:25.900Z,11.14
2018-03-29T21:46:53.475Z,11.02
2018-03-29T21:49:21.087Z,11.03
2018-03-29T21:51:48.645Z,10.91
2018-03-29T21:54:16.044Z,11.15
2018-03-29T21:56:43.450Z,10.89
2018-03-29T21:59:11.004Z,11.04
2018-03-29T22:01:38.669Z,10.98
2018-03-29T22:04:06.126Z,10.83
2018-03-29T22:06:33.579Z,11.01
2018-03-29T22:09:01.093Z,11.17
2018-03-29T22:11:28.456Z,11.35
2018-03-29T22:13:56.089Z,10.79
2018-03-29T22:16:23.780Z,10.81
2018-03-29T22:18:51.475Z,10.52
2018-03-29T22:21:19.239Z,10.66
2018-03-29T22:23:46.854Z,10.79
2018-03-29T22:26:14.771Z,10.65
2018-03-29T22:28:43.263Z,11.04
2018-03-29T22:31:10.963Z,11.03
2018-03-29T22:33:38.653Z,11.17
2018-03-29T22:36:07.459Z,11.03
2018-03-29T22:38:35.122Z,11.01
2018-03-29T22:41:02.806Z,10.43
2018-03-29T22:43:30.961Z,10.37
2018-03-29T22:45:59.545Z,10.72
2018-03-29T22:48:27.252Z,10.81
2018-03-29T22:50:54.955Z,10.22
2018-03-29T22:53:22.648Z,9.99
2018-03-29T22:55:50.328Z,10.37
2018-03-29T22:58:17.961Z,10.61
2018-03-29T23:00:45.590Z,10.49
2018-03-29T23:03:14.073Z,10.51
2018-03-29T23:05:41.730Z,10.44
2018-03-29T23:08:09.459Z,10.39
2018-03-29T23:10:37.117Z,10.31
2018-03-29T23:13:05.697Z,10.49
2018-03-29T23:15:34.253Z,9.97
2018-03-29T23:18:01.942Z,9.99
2018-03-29T23:20:29.709Z,10.26
2018-03-29T23:22:57.370Z,10.24
2018-03-29T23:25:24.971Z,10.15
2018-03-29T23:27:52.561Z,10.16
2018-03-29T23:30:20.221Z,10.26
2018-03-29T23:32:47.907Z,10.13
2018-03-29T23:35:16.537Z,10.17
2018-03-29T23:37:44.165Z,9.73
2018-03-29T23:40:12.774Z,9.78
2018-03-29T23:42:40.762Z,9.68
2018-03-29T23:45:09.851Z,9.58
2018-03-29T23:47:37.444Z,9.98
2018-03-29T23:50:05.466Z,9.96
2018-03-29T23:52:33.125Z,10.27
2018-03-29T23:55:00.878Z,9.69
2018-03-29T23:57:29.164Z,9.74
2018-03-29T23:59:56.838Z,9.76
